createdAt,value
2018-12-19T00:03:44.133Z,4.68
2018-12-19T00:08:40.125Z,4.61
2018-12-19T00:13:36.109Z,4.57
2018-12-19T00:18:32.071Z,4.61
2018-12-19T00:23:28.061Z,4.65
2018-12-19T00:28:24.838Z,4.61
2018-12-19T00:33:20.824Z,4.60
2018-12-19T00:38:16.840Z,4.60
2018-12-19T00:43:12.833Z,4.57
2018-12-19T00:48:08.829Z,4.72
2018-12-19T00:53:04.833Z,4.69
2018-12-19T00:58:06.277Z,4.68
2018-12-19T01:03:02.610Z,4.68
2018-12-19T01:07:58.604Z,4.70
2018-12-19T01:12:54.586Z,4.70
2018-12-19T01:17:50.577Z,4.78
2018-12-19T01:22:46.563Z,4.73
2018-12-19T01:27:45.012Z,4.71
2018-12-19T01:32:41.068Z,4.67
2018-12-19T01:37:37.055Z,4.73
2018-12-19T01:42:33.028Z,4.67
2018-12-19T01:47:29.016Z,4.65
2018-12-19T01:52:24.992Z,4.68
2018-12-19T01:57:22.020Z,4.66
2018-12-19T02:02:18.197Z,4.70
2018-12-19T02:07:14.200Z,4.66
2018-12-19T02:12:10.204Z,4.63
2018-12-19T02:17:06.200Z,4.66
2018-12-19T02:22:02.223Z,4.62
2018-12-19T02:26:59.149Z,4.64
2018-12-19T02:31:55.183Z,4.60
2018-12-19T02:36:51.172Z,4.66
2018-12-19T02:41:47.189Z,4.66
2018-12-19T02:46:43.188Z,4.65
2018-12-19T02:51:39.185Z,4.57
2018-12-19T02:56:35.173Z,4.65
2018-12-19T03:01:31.605Z,4.66
2018-12-19T03:06:27.612Z,4.66
2018-12-19T03:11:23.644Z,4.69
2018-12-19T03:16:20.061Z,4.74
2018-12-19T03:21:16.064Z,4.75
2018-12-19T03:26:12.064Z,4.76
2018-12-19T03:31:08.063Z,4.73
2018-12-19T03:36:04.064Z,4.85
2018-12-19T03:41:00.184Z,4.90
2018-12-19T03:45:56.180Z,4.90
2018-12-19T03:50:52.171Z,4.98
2018-12-19T03:55:48.152Z,4.86
2018-12-19T04:00:44.182Z,5.03
2018-12-19T04:05:40.436Z,4.97
2018-12-19T04:10:36.432Z,5.00
2018-12-19T04:15:32.435Z,5.01
2018-12-19T04:20:28.445Z,5.00
2018-12-19T04:25:24.441Z,5.02
2018-12-19T04:30:20.434Z,5.10
2018-12-19T04:35:23.425Z,5.19
2018-12-19T04:40:19.425Z,5.12
2018-12-19T04:45:15.420Z,5.24
2018-12-19T04:50:11.400Z,5.38
2018-12-19T04:55:07.400Z,5.39
2018-12-19T05:00:06.357Z,5.51
2018-12-19T05:05:02.694Z,5.37
2018-12-19T05:09:59.519Z,5.56
2018-12-19T05:14:55.512Z,5.61
2018-12-19T05:19:51.921Z,5.58
2018-12-19T05:24:48.029Z,5.61
2018-12-19T05:35:16.542Z,5.64
2018-12-19T05:40:18.620Z,5.70
2018-12-19T05:45:10.550Z,5.75
2018-12-19T05:50:07.470Z,5.64
2018-12-19T05:55:03.921Z,5.56
2018-12-19T05:59:59.921Z,5.58
2018-12-19T06:04:57.172Z,5.56
2018-12-19T06:09:53.161Z,5.45
2018-12-19T06:14:49.152Z,5.21
2018-12-19T06:19:45.136Z,5.29
2018-12-19T06:24:41.135Z,5.24
2018-12-19T06:29:37.100Z,5.03
2018-12-19T06:34:33.085Z,4.98
2018-12-19T06:39:29.073Z,5.12
2018-12-19T06:44:25.059Z,5.07
2018-12-19T06:49:21.032Z,4.99
2018-12-19T06:54:17.036Z,5.08
2018-12-19T06:59:13.032Z,5.20
2018-12-19T07:04:09.008Z,5.18
2018-12-19T07:09:05.240Z,5.10
2018-12-19T07:14:01.261Z,5.02
2018-12-19T07:18:57.276Z,4.94
2018-12-19T07:23:53.414Z,4.94
2018-12-19T07:28:49.446Z,5.02
2018-12-19T07:33:45.479Z,5.00
2018-12-19T07:38:41.533Z,4.92
2018-12-19T07:43:37.578Z,5.08
2018-12-19T07:48:33.959Z,4.95
2018-12-19T07:53:30.016Z,5.08
2018-12-19T07:58:26.778Z,5.04
2018-12-19T08:03:42.903Z,5.24
2018-12-19T08:08:38.928Z,5.32
2018-12-19T08:13:34.959Z,5.41
2018-12-19T08:18:30.985Z,5.31
2018-12-19T08:23:27.015Z,5.50
2018-12-19T08:28:23.735Z,5.54
2018-12-19T08:33:19.754Z,5.62
2018-12-19T08:38:15.794Z,5.69
2018-12-19T08:43:11.836Z,5.78
2018-12-19T08:48:07.860Z,5.89
2018-12-19T08:53:03.892Z,5.99
2018-12-19T08:58:03.631Z,5.99
2018-12-19T09:02:59.808Z,6.21
2018-12-19T09:07:55.856Z,6.29
2018-12-19T09:12:51.862Z,6.44
2018-12-19T09:17:47.880Z,6.38
2018-12-19T09:22:43.931Z,6.44
2018-12-19T09:27:42.950Z,6.62
2018-12-19T09:32:39.088Z,6.79
2018-12-19T09:37:35.126Z,6.69
2018-12-19T09:42:31.283Z,6.95
2018-12-19T09:47:29.140Z,7.06
2018-12-19T09:52:26.209Z,7.13
2018-12-19T09:57:23.991Z,7.10
2018-12-19T10:02:23.808Z,7.17
2018-12-19T10:07:20.618Z,7.20
2018-12-19T10:12:16.761Z,7.07
2018-12-19T10:17:12.807Z,7.11
2018-12-19T10:22:08.839Z,7.02
2018-12-19T10:27:04.874Z,6.95
2018-12-19T10:32:01.265Z,7.10
2018-12-19T10:36:58.851Z,6.99
2018-12-19T10:41:54.939Z,7.16
2018-12-19T10:46:51.005Z,7.20
2018-12-19T10:51:47.120Z,7.27
2018-12-19T10:56:43.217Z,7.21
2018-12-19T11:01:39.603Z,7.22
2018-12-19T11:06:35.635Z,7.20
2018-12-19T11:11:32.858Z,7.28
2018-12-19T11:16:29.141Z,7.22
2018-12-19T11:21:25.188Z,7.35
2018-12-19T11:26:24.656Z,7.36
2018-12-19T11:31:20.727Z,7.47
2018-12-19T11:36:16.752Z,7.56
2018-12-19T11:41:12.912Z,7.57
2018-12-19T11:46:08.956Z,7.70
2018-12-19T11:51:05.085Z,7.88
2018-12-19T11:56:01.258Z,7.98
2018-12-19T12:00:57.526Z,8.02
2018-12-19T12:05:53.560Z,8.05
2018-12-19T12:16:06.059Z,8.85
2018-12-19T12:21:02.101Z,9.36
2018-12-19T12:25:58.244Z,9.53
2018-12-19T12:30:54.296Z,9.51
2018-12-19T12:35:50.453Z,9.75
2018-12-19T12:40:46.497Z,9.85
2018-12-19T12:45:42.611Z,9.77
2018-12-19T12:50:38.656Z,9.75
2018-12-19T12:55:34.785Z,9.82
2018-12-19T13:00:30.829Z,9.73
2018-12-19T13:05:26.922Z,9.68
2018-12-19T13:10:22.939Z,9.65
2018-12-19T13:15:25.040Z,9.79
2018-12-19T13:20:21.687Z,9.73
2018-12-19T13:25:17.731Z,9.74
2018-12-19T13:30:13.804Z,9.67
2018-12-19T13:35:09.839Z,9.59
2018-12-19T13:40:06.403Z,9.65
2018-12-19T13:45:03.449Z,9.68
2018-12-19T13:49:59.510Z,9.56
2018-12-19T13:54:56.065Z,9.68
2018-12-19T13:59:52.126Z,9.71
2018-12-19T14:04:48.542Z,9.81
2018-12-19T14:09:45.288Z,9.65
2018-12-19T14:14:41.498Z,9.48
2018-12-19T14:19:38.479Z,9.62
2018-12-19T14:24:35.342Z,9.55
2018-12-19T14:29:32.419Z,9.59
2018-12-19T14:34:28.935Z,9.37
2018-12-19T14:39:25.028Z,9.19
2018-12-19T14:44:21.112Z,8.98
2018-12-19T14:49:17.199Z,9.14
2018-12-19T14:54:13.257Z,8.73
2018-12-19T14:59:09.281Z,8.65
2018-12-19T15:04:05.338Z,8.63
2018-12-19T15:09:01.430Z,8.40
2018-12-19T15:13:57.512Z,8.22
2018-12-19T15:18:53.591Z,8.22
2018-12-19T15:23:50.773Z,8.20
2018-12-19T15:28:46.870Z,8.13
2018-12-19T15:33:43.485Z,8.07
2018-12-19T15:38:39.480Z,7.99
2018-12-19T15:43:35.493Z,7.89
2018-12-19T15:48:31.507Z,7.65
2018-12-19T15:53:28.111Z,7.52
2018-12-19T15:58:25.015Z,7.47
2018-12-19T16:03:21.092Z,7.41
2018-12-19T16:08:17.267Z,7.46
2018-12-19T16:13:13.284Z,7.36
2018-12-19T16:18:09.288Z,7.23
2018-12-19T16:23:05.312Z,6.99
2018-12-19T16:28:05.045Z,6.82
2018-12-19T16:33:01.092Z,6.75
2018-12-19T16:37:57.072Z,6.56
2018-12-19T16:42:53.072Z,6.56
2018-12-19T16:47:49.082Z,6.34
2018-12-19T16:52:46.393Z,6.23
2018-12-19T16:57:42.801Z,6.11
2018-12-19T17:02:39.363Z,6.04
2018-12-19T17:07:35.357Z,5.94
2018-12-19T17:12:31.353Z,5.75
2018-12-19T17:17:27.342Z,5.61
2018-12-19T17:22:23.328Z,5.58
2018-12-19T17:27:19.433Z,5.49
2018-12-19T17:32:15.473Z,5.50
2018-12-19T17:37:11.487Z,5.47
2018-12-19T17:42:07.515Z,5.33
2018-12-19T17:47:03.556Z,5.41
2018-12-19T17:51:59.546Z,5.43
2018-12-19T17:56:55.536Z,5.35
2018-12-19T18:01:51.563Z,5.38
2018-12-19T18:06:47.569Z,5.36
2018-12-19T18:11:43.583Z,5.44
2018-12-19T18:16:39.580Z,5.50
2018-12-19T18:21:35.565Z,5.55
2018-12-19T18:26:31.560Z,5.54
2018-12-19T18:31:27.572Z,5.34
2018-12-19T18:36:23.573Z,5.28
2018-12-19T18:41:19.592Z,5.14
2018-12-19T18:46:15.716Z,5.09
2018-12-19T18:51:11.709Z,5.05
2018-12-19T18:56:07.697Z,4.97
2018-12-19T19:01:03.802Z,4.89
2018-12-19T19:05:59.808Z,4.88
2018-12-19T19:10:55.797Z,4.98
2018-12-19T19:15:51.780Z,5.07
2018-12-19T19:20:47.788Z,5.28
2018-12-19T19:25:44.292Z,5.15
2018-12-19T19:30:40.353Z,5.38
2018-12-19T19:35:36.356Z,5.52
2018-12-19T19:40:32.371Z,5.59
2018-12-19T19:45:28.393Z,5.49
2018-12-19T19:50:24.394Z,5.59
2018-12-19T19:55:20.384Z,5.53
2018-12-19T20:00:18.388Z,5.57
2018-12-19T20:05:14.400Z,5.65
2018-12-19T20:10:10.424Z,5.58
2018-12-19T20:15:06.605Z,5.62
2018-12-19T20:20:03.073Z,5.73
2018-12-19T20:24:59.142Z,5.63
2018-12-19T20:29:55.472Z,5.93
2018-12-19T20:34:51.740Z,5.76
2018-12-19T20:39:49.031Z,5.78
2018-12-19T20:44:46.997Z,5.73
2018-12-19T20:49:43.802Z,5.75
2018-12-19T20:54:41.263Z,5.81
2018-12-19T20:59:37.470Z,5.84
2018-12-19T21:04:33.936Z,5.87
2018-12-19T21:09:30.032Z,5.92
2018-12-19T21:14:26.522Z,6.07
2018-12-19T21:19:23.141Z,5.96
2018-12-19T21:24:19.666Z,5.96
2018-12-19T21:29:16.154Z,6.09
2018-12-19T21:34:12.691Z,5.97
2018-12-19T21:39:09.182Z,5.97
2018-12-19T21:44:05.700Z,6.03
2018-12-19T21:49:02.210Z,6.12
2018-12-19T21:53:58.679Z,6.12
2018-12-19T21:58:55.077Z,6.09
2018-12-19T22:03:51.507Z,6.09
2018-12-19T22:08:48.243Z,6.29
2018-12-19T22:13:44.644Z,6.11
2018-12-19T22:18:44.071Z,6.17
2018-12-19T22:23:40.675Z,6.11
2018-12-19T22:28:37.250Z,6.18
2018-12-19T22:33:33.767Z,6.04
2018-12-19T22:38:30.273Z,6.10
2018-12-19T22:43:26.774Z,6.02
2018-12-19T22:48:23.271Z,5.97
2018-12-19T22:53:19.670Z,6.15
2018-12-19T22:58:16.937Z,6.01
2018-12-19T23:03:13.348Z,5.97
2018-12-19T23:08:09.871Z,5.95
2018-12-19T23:13:06.320Z,6.04
2018-12-19T23:18:08.877Z,6.04
2018-12-19T23:23:05.273Z,5.91
2018-12-19T23:28:02.683Z,5.98
2018-12-19T23:32:59.153Z,6.12
2018-12-19T23:37:55.977Z,6.16
2018-12-19T23:42:52.473Z,6.33
2018-12-19T23:47:49.392Z,6.27
2018-12-19T23:52:45.977Z,6.30
2018-12-19T23:57:46.833Z,6.46
